sensor_id;sensor_type;location;lat;lon;timestamp;temperature;humidity
67050;DHT22;53955;52.442;13.284;2023-01-28T00:02:19;4.10;58.40
67050;DHT22;53955;52.442;13.284;2023-01-28T00:04:46;4.00;59.00
67050;DHT22;53955;52.442;13.284;2023-01-28T00:07:13;4.10;59.50
67050;DHT22;53955;52.442;13.284;2023-01-28T00:09:39;4.20;59.00
67050;DHT22;53955;52.442;13.284;2023-01-28T00:12:06;4.10;59.80
67050;DHT22;53955;52.442;13.284;2023-01-28T00:14:32;4.00;59.80
67050;DHT22;53955;52.442;13.284;2023-01-28T00:16:59;3.80;59.80
67050;DHT22;53955;52.442;13.284;2023-01-28T00:19:27;4.10;60.20
67050;DHT22;53955;52.442;13.284;2023-01-28T00:21:54;3.90;60.10
67050;DHT22;53955;52.442;13.284;2023-01-28T00:24:21;3.80;60.00
67050;DHT22;53955;52.442;13.284;2023-01-28T00:26:47;3.90;60.10
67050;DHT22;53955;52.442;13.284;2023-01-28T00:29:14;3.90;60.00
67050;DHT22;53955;52.442;13.284;2023-01-28T00:31:40;4.00;60.20
67050;DHT22;53955;52.442;13.284;2023-01-28T00:34:08;3.80;60.30
67050;DHT22;53955;52.442;13.284;2023-01-28T00:36:36;3.90;60.10
67050;DHT22;53955;52.442;13.284;2023-01-28T00:39:05;3.60;60.60
67050;DHT22;53955;52.442;13.284;2023-01-28T00:41:31;3.60;60.80
67050;DHT22;53955;52.442;13.284;2023-01-28T00:43:58;3.50;61.60
67050;DHT22;53955;52.442;13.284;2023-01-28T00:46:25;3.60;61.60
67050;DHT22;53955;52.442;13.284;2023-01-28T00:48:52;3.70;61.40
67050;DHT22;53955;52.442;13.284;2023-01-28T00:51:19;3.70;61.50
67050;DHT22;53955;52.442;13.284;2023-01-28T00:53:48;3.50;61.30
67050;DHT22;53955;52.442;13.284;2023-01-28T00:56:17;3.40;61.60
67050;DHT22;53955;52.442;13.284;2023-01-28T00:58:44;3.50;62.00
67050;DHT22;53955;52.442;13.284;2023-01-28T01:01:13;3.50;60.90
67050;DHT22;53955;52.442;13.284;2023-01-28T01:03:40;3.50;61.80
67050;DHT22;53955;52.442;13.284;2023-01-28T01:06:08;3.60;61.70
67050;DHT22;53955;52.442;13.284;2023-01-28T01:08:35;3.60;61.30
67050;DHT22;53955;52.442;13.284;2023-01-28T01:11:07;3.50;61.70
67050;DHT22;53955;52.442;13.284;2023-01-28T01:13:34;3.70;61.90
67050;DHT22;53955;52.442;13.284;2023-01-28T01:16:03;3.70;61.90
67050;DHT22;53955;52.442;13.284;2023-01-28T01:18:30;3.80;61.70
67050;DHT22;53955;52.442;13.284;2023-01-28T01:20:57;3.70;61.90
67050;DHT22;53955;52.442;13.284;2023-01-28T01:23:25;3.80;61.30
67050;DHT22;53955;52.442;13.284;2023-01-28T01:25:51;3.70;61.70
67050;DHT22;53955;52.442;13.284;2023-01-28T01:28:20;3.60;61.70
67050;DHT22;53955;52.442;13.284;2023-01-28T01:30:47;3.70;61.90
67050;DHT22;53955;52.442;13.284;2023-01-28T01:33:15;3.60;62.20
67050;DHT22;53955;52.442;13.284;2023-01-28T01:35:41;3.50;62.30
67050;DHT22;53955;52.442;13.284;2023-01-28T01:38:08;3.60;61.90
67050;DHT22;53955;52.442;13.284;2023-01-28T01:40:35;3.90;61.60
67050;DHT22;53955;52.442;13.284;2023-01-28T01:43:04;3.70;62.30
67050;DHT22;53955;52.442;13.284;2023-01-28T01:45:36;3.70;62.80
67050;DHT22;53955;52.442;13.284;2023-01-28T01:48:14;3.80;61.90
67050;DHT22;53955;52.442;13.284;2023-01-28T01:50:50;3.90;61.30
67050;DHT22;53955;52.442;13.284;2023-01-28T01:53:19;3.90;61.70
67050;DHT22;53955;52.442;13.284;2023-01-28T01:55:49;3.80;60.80
67050;DHT22;53955;52.442;13.284;2023-01-28T01:58:20;3.90;61.40
67050;DHT22;53955;52.442;13.284;2023-01-28T02:00:49;3.80;62.00
67050;DHT22;53955;52.442;13.284;2023-01-28T02:03:18;3.90;61.50
67050;DHT22;53955;52.442;13.284;2023-01-28T02:05:48;3.90;61.10
67050;DHT22;53955;52.442;13.284;2023-01-28T02:08:15;4.00;61.10
67050;DHT22;53955;52.442;13.284;2023-01-28T02:10:55;3.90;60.60
67050;DHT22;53955;52.442;13.284;2023-01-28T02:13:27;4.00;61.00
67050;DHT22;53955;52.442;13.284;2023-01-28T02:15:55;3.80;61.50
67050;DHT22;53955;52.442;13.284;2023-01-28T02:18:25;3.70;61.70
67050;DHT22;53955;52.442;13.284;2023-01-28T02:21:02;4.00;61.50
67050;DHT22;53955;52.442;13.284;2023-01-28T02:23:37;4.00;60.90
67050;DHT22;53955;52.442;13.284;2023-01-28T02:26:12;3.80;61.00
67050;DHT22;53955;52.442;13.284;2023-01-28T02:28:46;3.90;61.40
67050;DHT22;53955;52.442;13.284;2023-01-28T02:31:14;3.80;61.20
67050;DHT22;53955;52.442;13.284;2023-01-28T02:33:45;3.70;60.90
67050;DHT22;53955;52.442;13.284;2023-01-28T02:36:16;3.50;61.40
67050;DHT22;53955;52.442;13.284;2023-01-28T02:38:45;3.80;61.90
67050;DHT22;53955;52.442;13.284;2023-01-28T02:41:13;3.90;60.60
67050;DHT22;53955;52.442;13.284;2023-01-28T02:43:42;4.00;61.20
67050;DHT22;53955;52.442;13.284;2023-01-28T02:46:20;3.80;61.80
67050;DHT22;53955;52.442;13.284;2023-01-28T02:49:09;3.80;61.80
67050;DHT22;53955;52.442;13.284;2023-01-28T02:51:49;3.90;61.60
67050;DHT22;53955;52.442;13.284;2023-01-28T02:54:22;4.00;61.70
67050;DHT22;53955;52.442;13.284;2023-01-28T02:56:56;4.10;61.80
67050;DHT22;53955;52.442;13.284;2023-01-28T02:59:28;4.00;61.80
67050;DHT22;53955;52.442;13.284;2023-01-28T03:02:06;4.00;61.10
67050;DHT22;53955;52.442;13.284;2023-01-28T03:04:42;3.80;61.30
67050;DHT22;53955;52.442;13.284;2023-01-28T03:07:11;3.80;61.30
67050;DHT22;53955;52.442;13.284;2023-01-28T03:09:39;3.90;62.20
67050;DHT22;53955;52.442;13.284;2023-01-28T03:12:08;3.90;61.90
67050;DHT22;53955;52.442;13.284;2023-01-28T03:14:56;4.00;61.30
67050;DHT22;53955;52.442;13.284;2023-01-28T03:17:44;4.00;60.90
67050;DHT22;53955;52.442;13.284;2023-01-28T03:20:35;3.90;61.40
67050;DHT22;53955;52.442;13.284;2023-01-28T03:23:21;3.80;61.40
67050;DHT22;53955;52.442;13.284;2023-01-28T03:26:06;4.20;61.70
67050;DHT22;53955;52.442;13.284;2023-01-28T03:28:51;4.10;61.00
67050;DHT22;53955;52.442;13.284;2023-01-28T03:31:36;4.00;60.90
67050;DHT22;53955;52.442;13.284;2023-01-28T03:34:22;3.90;60.60
67050;DHT22;53955;52.442;13.284;2023-01-28T03:37:07;3.90;60.10
67050;DHT22;53955;52.442;13.284;2023-01-28T03:39:34;4.10;60.60
67050;DHT22;53955;52.442;13.284;2023-01-28T03:42:03;4.00;60.90
67050;DHT22;53955;52.442;13.284;2023-01-28T03:44:31;4.00;60.50
67050;DHT22;53955;52.442;13.284;2023-01-28T03:47:17;3.90;60.40
67050;DHT22;53955;52.442;13.284;2023-01-28T03:49:47;4.20;60.70
67050;DHT22;53955;52.442;13.284;2023-01-28T03:52:14;4.10;60.80
67050;DHT22;53955;52.442;13.284;2023-01-28T03:54:41;4.10;60.80
67050;DHT22;53955;52.442;13.284;2023-01-28T03:57:08;4.20;61.20
67050;DHT22;53955;52.442;13.284;2023-01-28T03:59:35;4.10;60.60
67050;DHT22;53955;52.442;13.284;2023-01-28T04:02:02;4.20;60.40
67050;DHT22;53955;52.442;13.284;2023-01-28T04:04:29;4.20;60.40
67050;DHT22;53955;52.442;13.284;2023-01-28T04:06:58;4.10;59.00
67050;DHT22;53955;52.442;13.284;2023-01-28T04:09:25;4.20;59.70
67050;DHT22;53955;52.442;13.284;2023-01-28T04:11:52;4.40;60.10
67050;DHT22;53955;52.442;13.284;2023-01-28T04:14:18;4.30;60.10
67050;DHT22;53955;52.442;13.284;2023-01-28T04:16:45;4.10;60.30
67050;DHT22;53955;52.442;13.284;2023-01-28T04:19:12;4.20;59.60
67050;DHT22;53955;52.442;13.284;2023-01-28T04:21:39;4.30;59.10
67050;DHT22;53955;52.442;13.284;2023-01-28T04:24:06;4.20;59.90
67050;DHT22;53955;52.442;13.284;2023-01-28T04:26:33;4.30;59.60
67050;DHT22;53955;52.442;13.284;2023-01-28T04:29:00;4.20;60.10
67050;DHT22;53955;52.442;13.284;2023-01-28T04:31:26;4.30;59.70
67050;DHT22;53955;52.442;13.284;2023-01-28T04:33:53;4.30;57.80
67050;DHT22;53955;52.442;13.284;2023-01-28T04:36:19;4.40;56.60
67050;DHT22;53955;52.442;13.284;2023-01-28T04:38:46;4.40;55.30
67050;DHT22;53955;52.442;13.284;2023-01-28T04:41:13;4.10;55.90
67050;DHT22;53955;52.442;13.284;2023-01-28T04:43:40;4.10;56.80
67050;DHT22;53955;52.442;13.284;2023-01-28T04:46:06;4.10;58.30
67050;DHT22;53955;52.442;13.284;2023-01-28T04:48:33;4.30;57.30
67050;DHT22;53955;52.442;13.284;2023-01-28T04:51:00;4.00;56.50
67050;DHT22;53955;52.442;13.284;2023-01-28T04:53:27;4.10;57.30
67050;DHT22;53955;52.442;13.284;2023-01-28T04:55:54;4.00;55.60
67050;DHT22;53955;52.442;13.284;2023-01-28T04:58:22;4.20;55.50
67050;DHT22;53955;52.442;13.284;2023-01-28T05:00:51;4.40;54.60
67050;DHT22;53955;52.442;13.284;2023-01-28T05:03:18;4.10;54.00
67050;DHT22;53955;52.442;13.284;2023-01-28T05:05:44;4.30;54.00
67050;DHT22;53955;52.442;13.284;2023-01-28T05:08:11;4.10;53.80
67050;DHT22;53955;52.442;13.284;2023-01-28T05:10:37;3.80;53.50
67050;DHT22;53955;52.442;13.284;2023-01-28T05:13:05;3.90;54.10
67050;DHT22;53955;52.442;13.284;2023-01-28T05:15:32;3.90;53.50
67050;DHT22;53955;52.442;13.284;2023-01-28T05:17:59;3.90;53.80
67050;DHT22;53955;52.442;13.284;2023-01-28T05:20:26;3.90;54.30
67050;DHT22;53955;52.442;13.284;2023-01-28T05:22:52;4.10;54.50
67050;DHT22;53955;52.442;13.284;2023-01-28T05:25:20;4.00;54.70
67050;DHT22;53955;52.442;13.284;2023-01-28T05:27:48;4.30;54.70
67050;DHT22;53955;52.442;13.284;2023-01-28T05:30:16;4.10;53.30
67050;DHT22;53955;52.442;13.284;2023-01-28T05:32:44;4.20;53.90
67050;DHT22;53955;52.442;13.284;2023-01-28T05:35:11;4.20;53.10
67050;DHT22;53955;52.442;13.284;2023-01-28T05:37:37;4.30;53.90
67050;DHT22;53955;52.442;13.284;2023-01-28T05:40:05;4.50;53.40
67050;DHT22;53955;52.442;13.284;2023-01-28T05:42:31;4.40;53.90
67050;DHT22;53955;52.442;13.284;2023-01-28T05:44:58;4.20;54.30
67050;DHT22;53955;52.442;13.284;2023-01-28T05:47:25;4.40;52.90
67050;DHT22;53955;52.442;13.284;2023-01-28T05:49:53;4.30;53.10
67050;DHT22;53955;52.442;13.284;2023-01-28T05:52:19;4.30;52.10
67050;DHT22;53955;52.442;13.284;2023-01-28T05:54:46;4.20;52.30
67050;DHT22;53955;52.442;13.284;2023-01-28T05:57:13;4.30;52.30
67050;DHT22;53955;52.442;13.284;2023-01-28T05:59:39;4.70;50.70
67050;DHT22;53955;52.442;13.284;2023-01-28T06:02:06;4.50;50.00
67050;DHT22;53955;52.442;13.284;2023-01-28T06:04:32;4.40;50.70
67050;DHT22;53955;52.442;13.284;2023-01-28T06:07:00;4.40;50.80
67050;DHT22;53955;52.442;13.284;2023-01-28T06:09:27;4.20;50.80
67050;DHT22;53955;52.442;13.284;2023-01-28T06:11:53;4.20;51.80
67050;DHT22;53955;52.442;13.284;2023-01-28T06:14:20;4.30;51.70
67050;DHT22;53955;52.442;13.284;2023-01-28T06:16:46;4.50;51.20
67050;DHT22;53955;52.442;13.284;2023-01-28T06:19:13;4.30;51.20
67050;DHT22;53955;52.442;13.284;2023-01-28T06:21:40;4.40;51.30
67050;DHT22;53955;52.442;13.284;2023-01-28T06:24:09;4.30;51.00
67050;DHT22;53955;52.442;13.284;2023-01-28T06:26:35;4.40;51.00
67050;DHT22;53955;52.442;13.284;2023-01-28T06:29:02;4.60;50.60
67050;DHT22;53955;52.442;13.284;2023-01-28T06:31:29;4.50;50.90
67050;DHT22;53955;52.442;13.284;2023-01-28T06:33:56;4.50;50.30
67050;DHT22;53955;52.442;13.284;2023-01-28T06:36:23;4.60;49.20
67050;DHT22;53955;52.442;13.284;2023-01-28T06:38:49;4.60;49.20
67050;DHT22;53955;52.442;13.284;2023-01-28T06:41:17;4.50;48.70
67050;DHT22;53955;52.442;13.284;2023-01-28T06:43:44;4.60;48.80
67050;DHT22;53955;52.442;13.284;2023-01-28T06:46:10;4.70;49.60
67050;DHT22;53955;52.442;13.284;2023-01-28T06:48:37;4.50;48.90
67050;DHT22;53955;52.442;13.284;2023-01-28T06:51:04;4.40;50.00
67050;DHT22;53955;52.442;13.284;2023-01-28T06:53:30;4.70;49.80
67050;DHT22;53955;52.442;13.284;2023-01-28T06:55:57;4.70;50.60
67050;DHT22;53955;52.442;13.284;2023-01-28T06:58:25;4.50;50.50
67050;DHT22;53955;52.442;13.284;2023-01-28T07:00:52;4.50;51.10
67050;DHT22;53955;52.442;13.284;2023-01-28T07:03:18;4.30;51.30
67050;DHT22;53955;52.442;13.284;2023-01-28T07:05:45;4.50;52.10
67050;DHT22;53955;52.442;13.284;2023-01-28T07:08:12;4.60;51.70
67050;DHT22;53955;52.442;13.284;2023-01-28T07:10:38;4.60;50.60
67050;DHT22;53955;52.442;13.284;2023-01-28T07:13:05;4.60;49.20
67050;DHT22;53955;52.442;13.284;2023-01-28T07:15:33;4.70;49.10
67050;DHT22;53955;52.442;13.284;2023-01-28T07:17:59;4.40;48.70
67050;DHT22;53955;52.442;13.284;2023-01-28T07:20:26;4.70;49.80
67050;DHT22;53955;52.442;13.284;2023-01-28T07:22:53;4.50;49.40
67050;DHT22;53955;52.442;13.284;2023-01-28T07:25:19;4.40;50.40
67050;DHT22;53955;52.442;13.284;2023-01-28T07:27:47;4.40;50.70
67050;DHT22;53955;52.442;13.284;2023-01-28T07:30:16;4.40;50.80
67050;DHT22;53955;52.442;13.284;2023-01-28T07:32:44;4.50;51.40
67050;DHT22;53955;52.442;13.284;2023-01-28T07:35:11;4.40;51.50
67050;DHT22;53955;52.442;13.284;2023-01-28T07:37:38;4.50;51.00
67050;DHT22;53955;52.442;13.284;2023-01-28T07:40:07;4.60;50.10
67050;DHT22;53955;52.442;13.284;2023-01-28T07:42:34;4.60;49.40
67050;DHT22;53955;52.442;13.284;2023-01-28T07:45:01;4.60;49.50
67050;DHT22;53955;52.442;13.284;2023-01-28T07:47:28;4.50;49.00
67050;DHT22;53955;52.442;13.284;2023-01-28T07:49:56;4.60;49.20
67050;DHT22;53955;52.442;13.284;2023-01-28T07:52:23;4.60;48.60
67050;DHT22;53955;52.442;13.284;2023-01-28T07:54:49;4.70;47.40
67050;DHT22;53955;52.442;13.284;2023-01-28T07:57:16;4.60;47.30
67050;DHT22;53955;52.442;13.284;2023-01-28T07:59:47;4.90;46.40
67050;DHT22;53955;52.442;13.284;2023-01-28T08:02:15;4.80;47.60
67050;DHT22;53955;52.442;13.284;2023-01-28T08:04:42;4.80;47.00
67050;DHT22;53955;52.442;13.284;2023-01-28T08:07:10;4.90;47.60
67050;DHT22;53955;52.442;13.284;2023-01-28T08:09:36;4.70;46.10
67050;DHT22;53955;52.442;13.284;2023-01-28T08:12:03;4.70;47.50
67050;DHT22;53955;52.442;13.284;2023-01-28T08:14:30;4.90;45.80
67050;DHT22;53955;52.442;13.284;2023-01-28T08:16:56;4.70;46.50
67050;DHT22;53955;52.442;13.284;2023-01-28T08:19:23;4.70;46.90
67050;DHT22;53955;52.442;13.284;2023-01-28T08:21:50;4.50;46.40
67050;DHT22;53955;52.442;13.284;2023-01-28T08:24:18;4.70;46.90
67050;DHT22;53955;52.442;13.284;2023-01-28T08:26:47;4.70;61.50
67050;DHT22;53955;52.442;13.284;2023-01-28T08:29:13;5.20;51.20
67050;DHT22;53955;52.442;13.284;2023-01-28T08:31:40;5.20;47.00
67050;DHT22;53955;52.442;13.284;2023-01-28T08:34:07;5.00;46.60
67050;DHT22;53955;52.442;13.284;2023-01-28T08:36:33;4.80;45.70
67050;DHT22;53955;52.442;13.284;2023-01-28T08:39:00;4.70;46.40
67050;DHT22;53955;52.442;13.284;2023-01-28T08:41:28;4.70;45.80
67050;DHT22;53955;52.442;13.284;2023-01-28T08:43:55;4.70;46.50
67050;DHT22;53955;52.442;13.284;2023-01-28T08:46:22;4.90;45.40
67050;DHT22;53955;52.442;13.284;2023-01-28T08:48:48;4.80;45.60
67050;DHT22;53955;52.442;13.284;2023-01-28T08:51:15;4.80;44.80
67050;DHT22;53955;52.442;13.284;2023-01-28T08:53:42;4.80;44.80
67050;DHT22;53955;52.442;13.284;2023-01-28T08:56:08;4.80;45.50
67050;DHT22;53955;52.442;13.284;2023-01-28T08:58:36;4.80;45.70
67050;DHT22;53955;52.442;13.284;2023-01-28T09:01:03;4.70;46.20
67050;DHT22;53955;52.442;13.284;2023-01-28T09:03:30;4.60;44.70
67050;DHT22;53955;52.442;13.284;2023-01-28T09:05:58;4.90;45.90
67050;DHT22;53955;52.442;13.284;2023-01-28T09:08:25;4.70;46.00
67050;DHT22;53955;52.442;13.284;2023-01-28T09:10:53;4.60;46.00
67050;DHT22;53955;52.442;13.284;2023-01-28T09:13:19;4.80;45.80
67050;DHT22;53955;52.442;13.284;2023-01-28T09:15:47;4.70;46.20
67050;DHT22;53955;52.442;13.284;2023-01-28T09:18:15;4.90;45.70
67050;DHT22;53955;52.442;13.284;2023-01-28T09:20:42;4.90;45.10
67050;DHT22;53955;52.442;13.284;2023-01-28T09:23:09;4.90;46.20
67050;DHT22;53955;52.442;13.284;2023-01-28T09:25:36;4.90;45.10
67050;DHT22;53955;52.442;13.284;2023-01-28T09:28:03;5.00;45.70
67050;DHT22;53955;52.442;13.284;2023-01-28T09:30:30;5.00;44.60
67050;DHT22;53955;52.442;13.284;2023-01-28T09:32:58;4.80;44.40
67050;DHT22;53955;52.442;13.284;2023-01-28T09:35:24;4.60;45.00
67050;DHT22;53955;52.442;13.284;2023-01-28T09:37:54;4.80;45.70
67050;DHT22;53955;52.442;13.284;2023-01-28T09:40:32;4.80;45.40
67050;DHT22;53955;52.442;13.284;2023-01-28T09:43:14;4.90;45.20
67050;DHT22;53955;52.442;13.284;2023-01-28T09:45:47;4.80;45.20
67050;DHT22;53955;52.442;13.284;2023-01-28T09:48:18;4.90;44.40
67050;DHT22;53955;52.442;13.284;2023-01-28T09:50:48;4.80;45.00
67050;DHT22;53955;52.442;13.284;2023-01-28T09:53:18;4.90;45.80
67050;DHT22;53955;52.442;13.284;2023-01-28T09:55:48;5.10;44.50
67050;DHT22;53955;52.442;13.284;2023-01-28T09:58:16;5.20;44.10
67050;DHT22;53955;52.442;13.284;2023-01-28T10:00:49;5.20;45.20
67050;DHT22;53955;52.442;13.284;2023-01-28T10:03:36;5.20;44.20
67050;DHT22;53955;52.442;13.284;2023-01-28T10:06:17;5.30;44.60
67050;DHT22;53955;52.442;13.284;2023-01-28T10:09:03;5.30;43.70
67050;DHT22;53955;52.442;13.284;2023-01-28T10:11:42;5.40;44.50
67050;DHT22;53955;52.442;13.284;2023-01-28T10:14:19;5.20;44.60
67050;DHT22;53955;52.442;13.284;2023-01-28T10:16:55;5.20;44.90
67050;DHT22;53955;52.442;13.284;2023-01-28T10:19:30;5.20;45.60
67050;DHT22;53955;52.442;13.284;2023-01-28T10:22:01;5.30;45.10
67050;DHT22;53955;52.442;13.284;2023-01-28T10:24:30;5.40;45.20
67050;DHT22;53955;52.442;13.284;2023-01-28T10:26:59;5.40;45.50
67050;DHT22;53955;52.442;13.284;2023-01-28T10:29:28;5.50;44.40
67050;DHT22;53955;52.442;13.284;2023-01-28T10:32:01;5.40;44.80
67050;DHT22;53955;52.442;13.284;2023-01-28T10:34:31;5.40;45.20
67050;DHT22;53955;52.442;13.284;2023-01-28T10:36:58;5.40;44.30
67050;DHT22;53955;52.442;13.284;2023-01-28T10:39:25;5.50;44.20
67050;DHT22;53955;52.442;13.284;2023-01-28T10:41:52;5.40;44.70
67050;DHT22;53955;52.442;13.284;2023-01-28T10:44:29;5.50;44.00
67050;DHT22;53955;52.442;13.284;2023-01-28T10:47:00;5.30;44.30
67050;DHT22;53955;52.442;13.284;2023-01-28T10:49:30;5.30;45.40
67050;DHT22;53955;52.442;13.284;2023-01-28T10:51:58;5.30;44.80
67050;DHT22;53955;52.442;13.284;2023-01-28T10:54:26;5.30;44.90
67050;DHT22;53955;52.442;13.284;2023-01-28T10:56:56;5.10;45.10
67050;DHT22;53955;52.442;13.284;2023-01-28T10:59:26;5.20;44.50
67050;DHT22;53955;52.442;13.284;2023-01-28T11:01:55;5.50;44.70
67050;DHT22;53955;52.442;13.284;2023-01-28T11:04:24;5.30;43.90
67050;DHT22;53955;52.442;13.284;2023-01-28T11:06:54;5.40;45.20
67050;DHT22;53955;52.442;13.284;2023-01-28T11:09:24;5.50;45.60
67050;DHT22;53955;52.442;13.284;2023-01-28T11:11:50;5.60;46.20
67050;DHT22;53955;52.442;13.284;2023-01-28T11:14:25;5.60;46.40
67050;DHT22;53955;52.442;13.284;2023-01-28T11:16:54;5.50;46.40
67050;DHT22;53955;52.442;13.284;2023-01-28T11:19:27;5.60;47.00
67050;DHT22;53955;52.442;13.284;2023-01-28T11:21:56;5.60;47.00
67050;DHT22;53955;52.442;13.284;2023-01-28T11:24:26;5.70;47.90
67050;DHT22;53955;52.442;13.284;2023-01-28T11:26:56;5.80;45.70
67050;DHT22;53955;52.442;13.284;2023-01-28T11:29:26;5.80;46.90
67050;DHT22;53955;52.442;13.284;2023-01-28T11:31:55;5.60;46.60
67050;DHT22;53955;52.442;13.284;2023-01-28T11:34:26;5.70;46.70
67050;DHT22;53955;52.442;13.284;2023-01-28T11:37:00;5.60;47.50
67050;DHT22;53955;52.442;13.284;2023-01-28T11:39:27;5.50;48.50
67050;DHT22;53955;52.442;13.284;2023-01-28T11:42:02;5.50;48.70
67050;DHT22;53955;52.442;13.284;2023-01-28T11:44:35;5.60;49.40
67050;DHT22;53955;52.442;13.284;2023-01-28T11:47:12;5.40;49.20
67050;DHT22;53955;52.442;13.284;2023-01-28T11:49:54;5.50;49.10
67050;DHT22;53955;52.442;13.284;2023-01-28T11:52:34;5.50;47.90
67050;DHT22;53955;52.442;13.284;2023-01-28T11:55:17;5.60;48.00
67050;DHT22;53955;52.442;13.284;2023-01-28T11:57:56;5.70;48.20
67050;DHT22;53955;52.442;13.284;2023-01-28T12:00:35;5.40;48.30
67050;DHT22;53955;52.442;13.284;2023-01-28T12:03:17;5.70;47.80
67050;DHT22;53955;52.442;13.284;2023-01-28T12:05:51;5.50;48.00
67050;DHT22;53955;52.442;13.284;2023-01-28T12:08:22;5.70;48.60
67050;DHT22;53955;52.442;13.284;2023-01-28T12:11:01;5.70;47.80
67050;DHT22;53955;52.442;13.284;2023-01-28T12:13:45;5.80;47.00
67050;DHT22;53955;52.442;13.284;2023-01-28T12:16:30;5.70;47.70
67050;DHT22;53955;52.442;13.284;2023-01-28T12:19:13;5.80;47.60
67050;DHT22;53955;52.442;13.284;2023-01-28T12:21:52;5.80;47.70
67050;DHT22;53955;52.442;13.284;2023-01-28T12:24:36;5.70;47.10
67050;DHT22;53955;52.442;13.284;2023-01-28T12:27:13;5.80;47.90
67050;DHT22;53955;52.442;13.284;2023-01-28T12:29:49;5.80;48.30
67050;DHT22;53955;52.442;13.284;2023-01-28T12:32:34;6.00;47.80
67050;DHT22;53955;52.442;13.284;2023-01-28T12:35:27;6.10;47.50
67050;DHT22;53955;52.442;13.284;2023-01-28T12:38:07;6.10;47.30
67050;DHT22;53955;52.442;13.284;2023-01-28T12:40:54;5.90;47.50
67050;DHT22;53955;52.442;13.284;2023-01-28T12:43:32;5.80;46.60
67050;DHT22;53955;52.442;13.284;2023-01-28T12:46:04;5.70;47.20
67050;DHT22;53955;52.442;13.284;2023-01-28T12:48:38;5.80;47.30
67050;DHT22;53955;52.442;13.284;2023-01-28T12:51:09;5.70;48.00
67050;DHT22;53955;52.442;13.284;2023-01-28T12:53:41;5.70;48.30
67050;DHT22;53955;52.442;13.284;2023-01-28T12:56:15;5.60;48.50
67050;DHT22;53955;52.442;13.284;2023-01-28T12:58:48;5.80;47.50
67050;DHT22;53955;52.442;13.284;2023-01-28T13:01:20;5.80;47.40
67050;DHT22;53955;52.442;13.284;2023-01-28T13:03:53;5.80;46.80
67050;DHT22;53955;52.442;13.284;2023-01-28T13:06:26;5.70;47.00
67050;DHT22;53955;52.442;13.284;2023-01-28T13:08:59;6.00;46.50
67050;DHT22;53955;52.442;13.284;2023-01-28T13:11:33;5.70;45.90
67050;DHT22;53955;52.442;13.284;2023-01-28T13:14:02;5.70;46.20
67050;DHT22;53955;52.442;13.284;2023-01-28T13:16:29;5.70;47.30
67050;DHT22;53955;52.442;13.284;2023-01-28T13:19:05;5.60;47.00
67050;DHT22;53955;52.442;13.284;2023-01-28T13:21:33;5.70;47.00
67050;DHT22;53955;52.442;13.284;2023-01-28T13:24:16;5.70;46.00
67050;DHT22;53955;52.442;13.284;2023-01-28T13:26:47;5.80;45.50
67050;DHT22;53955;52.442;13.284;2023-01-28T13:29:20;5.60;45.90
67050;DHT22;53955;52.442;13.284;2023-01-28T13:31:48;5.70;45.20
67050;DHT22;53955;52.442;13.284;2023-01-28T13:34:27;5.70;43.20
67050;DHT22;53955;52.442;13.284;2023-01-28T13:36:59;5.60;42.70
67050;DHT22;53955;52.442;13.284;2023-01-28T13:39:26;5.50;43.40
67050;DHT22;53955;52.442;13.284;2023-01-28T13:42:08;5.20;43.80
67050;DHT22;53955;52.442;13.284;2023-01-28T13:44:36;5.30;45.00
67050;DHT22;53955;52.442;13.284;2023-01-28T13:47:17;5.40;45.80
67050;DHT22;53955;52.442;13.284;2023-01-28T13:49:46;5.50;45.90
67050;DHT22;53955;52.442;13.284;2023-01-28T13:52:16;5.70;45.10
67050;DHT22;53955;52.442;13.284;2023-01-28T13:54:50;5.60;45.20
67050;DHT22;53955;52.442;13.284;2023-01-28T13:57:43;5.70;45.00
67050;DHT22;53955;52.442;13.284;2023-01-28T14:00:21;5.70;45.80
67050;DHT22;53955;52.442;13.284;2023-01-28T14:03:30;5.70;44.80
67050;DHT22;53955;52.442;13.284;2023-01-28T14:06:23;5.60;45.80
67050;DHT22;53955;52.442;13.284;2023-01-28T14:09:09;5.70;45.00
67050;DHT22;53955;52.442;13.284;2023-01-28T14:12:07;5.60;44.50
67050;DHT22;53955;52.442;13.284;2023-01-28T14:14:55;5.70;45.60
67050;DHT22;53955;52.442;13.284;2023-01-28T14:17:34;5.70;45.10
67050;DHT22;53955;52.442;13.284;2023-01-28T14:20:15;5.70;45.20
67050;DHT22;53955;52.442;13.284;2023-01-28T14:22:42;5.70;44.70
67050;DHT22;53955;52.442;13.284;2023-01-28T14:25:13;5.80;44.10
67050;DHT22;53955;52.442;13.284;2023-01-28T14:27:44;5.80;43.20
67050;DHT22;53955;52.442;13.284;2023-01-28T14:30:19;5.90;43.00
67050;DHT22;53955;52.442;13.284;2023-01-28T14:32:50;5.80;43.70
67050;DHT22;53955;52.442;13.284;2023-01-28T14:35:23;5.60;44.50
67050;DHT22;53955;52.442;13.284;2023-01-28T14:37:51;5.80;43.20
67050;DHT22;53955;52.442;13.284;2023-01-28T14:40:18;5.40;44.00
67050;DHT22;53955;52.442;13.284;2023-01-28T14:42:48;5.60;42.90
67050;DHT22;53955;52.442;13.284;2023-01-28T14:45:28;5.70;44.60
67050;DHT22;53955;52.442;13.284;2023-01-28T14:48:12;5.60;44.90
67050;DHT22;53955;52.442;13.284;2023-01-28T14:50:56;5.80;43.50
67050;DHT22;53955;52.442;13.284;2023-01-28T14:53:50;5.90;44.10
67050;DHT22;53955;52.442;13.284;2023-01-28T14:56:26;5.70;45.70
67050;DHT22;53955;52.442;13.284;2023-01-28T14:58:55;5.70;44.40
67050;DHT22;53955;52.442;13.284;2023-01-28T15:01:24;5.80;43.50
67050;DHT22;53955;52.442;13.284;2023-01-28T15:03:51;5.60;45.10
67050;DHT22;53955;52.442;13.284;2023-01-28T15:06:18;5.50;44.80
67050;DHT22;53955;52.442;13.284;2023-01-28T15:08:48;5.50;45.30
67050;DHT22;53955;52.442;13.284;2023-01-28T15:11:18;5.50;46.00
67050;DHT22;53955;52.442;13.284;2023-01-28T15:13:47;5.40;46.50
67050;DHT22;53955;52.442;13.284;2023-01-28T15:16:20;5.70;45.30
67050;DHT22;53955;52.442;13.284;2023-01-28T15:18:49;5.60;44.90
67050;DHT22;53955;52.442;13.284;2023-01-28T15:21:18;5.70;45.20
67050;DHT22;53955;52.442;13.284;2023-01-28T15:23:46;5.80;45.80
67050;DHT22;53955;52.442;13.284;2023-01-28T15:26:16;5.60;44.10
67050;DHT22;53955;52.442;13.284;2023-01-28T15:28:44;5.70;42.70
67050;DHT22;53955;52.442;13.284;2023-01-28T15:31:18;5.50;44.00
67050;DHT22;53955;52.442;13.284;2023-01-28T15:33:59;5.50;43.30
67050;DHT22;53955;52.442;13.284;2023-01-28T15:36:27;5.20;44.50
67050;DHT22;53955;52.442;13.284;2023-01-28T15:38:54;5.30;44.70
67050;DHT22;53955;52.442;13.284;2023-01-28T15:41:24;5.20;44.40
67050;DHT22;53955;52.442;13.284;2023-01-28T15:43:54;5.40;45.10
67050;DHT22;53955;52.442;13.284;2023-01-28T15:46:21;5.30;45.60
67050;DHT22;53955;52.442;13.284;2023-01-28T15:48:52;5.20;44.60
67050;DHT22;53955;52.442;13.284;2023-01-28T15:51:25;5.60;45.80
67050;DHT22;53955;52.442;13.284;2023-01-28T15:53:52;5.40;45.20